Aeroporto :
LOGIN :

Iscrizione | Disclaimer

   EN    FR    IT 

 










Sommario :    VFR   VFR Marginale   IFR   IFR Intensivo   IFR Molto Intensivo
Visibilità : 
Base nubi : 
>= 8 km
>= 3000ft
5 / 8 km
1000 / 3000 ft
1500m / 5 km
500 / 1000 ft
800 / 1500m
200 / 500 ft
< 800m
< 200 ft
Simboli :   Temporali  Nebbia  Neve Forte  Precipitazioni Forti  Vento > 20 kt
SIGMETs :   Varie  Temporali  Ghiacco  Turbolenza  Onda orograficha  Ceneri Vulcaniche







- Altitudine del aeroporto : 656 ft
- Codice IATA : CMN


GMMN - Casablanca Mohammed V

ULTIMO METAR :
  • 252330Z 20010G23KT 110V260 9999 SCT020TCU SCT100 18/15 Q1008 NOSIG

METARs OBSOLETI :
  • 252300Z 05007KT 9999 SCT020TCU SCT100 18/14 Q1007 NOSIG
  • 252230Z 36007KT 5000 -RA SCT020 SCT100 19/14 Q1007 NOSIG
  • 252200Z 27004KT 220V310 CAVOK 18/12 Q1008 NOSIG
  • 252130Z 07008KT 040V110 CAVOK 19/12 Q1008 NOSIG
  • 252100Z 05009KT 010V070 CAVOK 20/11 Q1008 NOSIG

TAF TAF GMMN
Valido dal 26 a 00 ore il 27 a 06 ore UTC


252300Z 2600/2706 12006KT 9999 FEW020 SCT100
BECMG 2609/2612 24010KT SCT020
PROB30
TEMPO 2615/2620 6000 -TSRA SCT020TCU FEW030CB
TEMPO 2622/2706 30008KT 5000 RA BKN020
Nessun NOTAM noto per questo aeroporto.
3 SIGMETs conosciuti per la FIR Casablanca (GMMM) :
 
Turbolenza severa
GMMM SIGMET A1 VALID 260230/260630 GMMC
GMMM CASABLANCA FIR SEV TURB FCST N OF LINE N3538 W00210 - N3513 W00 536 - N3552 W00940 SFC/FL050 STNR NC=
Temporali affogati
GMMM SIGMET 04 VALID 260230/260630 GMMC
GMMM CASABLANCA FIR EMBD TS FCST SW OF LINE N3346 W01255 - N3522 W00 846 - N3356 W00651 - N2918 W01013 - N2833 W01250 TOP FL380 MOV N NC=
Temporali affogati
GMMM SIGMET 03 VALID 252230/260230 GMMC
GMMM CASABLANCA FIR EMBD TS OBS WI N3318 W00743 - N3209 W00901 - N32 06 W01036 - N3305 W01054 - N3342 W00809 - N3318 W00743 TOP FL400 MOV N NC=



MetMap, La meteo Aeronautica in un colpo d'occhio ! - Copyright ORBIFLY Dicembre 2007 - Disclaimer

ORBIFLY MET'MAP TEAM :

Programmazione e sviluppo : Alexandra Zaïnal
Concezione e sviluppo : Baudouin d'Aumeries
Co-Programmazione e sviluppo : Marc-Olivier Méhu
Supporto tecnico e logistico : Manuel Goepfert
Aiuto per la traduzione : Arnaldo La Scala

Contatto : metmap@orbifly.com




FONTI E CREDITI :

   NOAA